sensor_id;sensor_type;location;lat;lon;timestamp;pressure;altitude;pressure_sealevel;temperature;humidity
52185;BME280;38160;52.876;18.778;2023-04-04T00:00:22;101976.62;;;-0.63;69.68
52185;BME280;38160;52.876;18.778;2023-04-04T00:03:32;101970.38;;;-0.66;69.84
52185;BME280;38160;52.876;18.778;2023-04-04T00:10:16;101956.79;;;-0.75;70.18
52185;BME280;38160;52.876;18.778;2023-04-04T00:13:46;101957.37;;;-0.76;70.11
52185;BME280;38160;52.876;18.778;2023-04-04T00:16:48;101958.02;;;-0.79;70.36
52185;BME280;38160;52.876;18.778;2023-04-04T00:22:43;101955.98;;;-0.82;70.60
52185;BME280;38160;52.876;18.778;2023-04-04T00:25:20;101954.83;;;-0.84;70.79
52185;BME280;38160;52.876;18.778;2023-04-04T00:27:57;101952.33;;;-0.88;70.92
52185;BME280;38160;52.876;18.778;2023-04-04T00:30:43;101950.31;;;-0.91;71.03
52185;BME280;38160;52.876;18.778;2023-04-04T00:33:23;101946.69;;;-0.93;70.92
52185;BME280;38160;52.876;18.778;2023-04-04T00:36:00;101948.58;;;-0.96;70.87
52185;BME280;38160;52.876;18.778;2023-04-04T00:39:17;101946.73;;;-0.99;71.22
52185;BME280;38160;52.876;18.778;2023-04-04T00:42:14;101940.50;;;-1.02;71.07
52185;BME280;38160;52.876;18.778;2023-04-04T00:45:11;101934.36;;;-1.04;71.08
52185;BME280;38160;52.876;18.778;2023-04-04T00:47:49;101927.67;;;-1.09;71.73
52185;BME280;38160;52.876;18.778;2023-04-04T00:50:29;101930.65;;;-1.09;71.77
52185;BME280;38160;52.876;18.778;2023-04-04T00:53:06;101930.66;;;-1.13;71.88
52185;BME280;38160;52.876;18.778;2023-04-04T01:02:26;101925.36;;;-1.22;72.16
52185;BME280;38160;52.876;18.778;2023-04-04T01:05:12;101921.34;;;-1.24;72.32
52185;BME280;38160;52.876;18.778;2023-04-04T01:07:48;101923.38;;;-1.26;72.45
52185;BME280;38160;52.876;18.778;2023-04-04T01:10:33;101914.46;;;-1.33;72.49
52185;BME280;38160;52.876;18.778;2023-04-04T01:13:11;101922.42;;;-1.29;72.86
52185;BME280;38160;52.876;18.778;2023-04-04T01:16:07;101919.73;;;-1.33;72.51
52185;BME280;38160;52.876;18.778;2023-04-04T01:18:44;101915.23;;;-1.35;72.62
52185;BME280;38160;52.876;18.778;2023-04-04T01:21:46;101914.22;;;-1.36;72.79
52185;BME280;38160;52.876;18.778;2023-04-04T01:31:50;101902.52;;;-1.45;73.09
52185;BME280;38160;52.876;18.778;2023-04-04T01:38:10;101890.20;;;-1.51;73.34
52185;BME280;38160;52.876;18.778;2023-04-04T01:40:57;101889.39;;;-1.53;73.33
52185;BME280;38160;52.876;18.778;2023-04-04T01:43:45;101888.42;;;-1.55;73.76
52185;BME280;38160;52.876;18.778;2023-04-04T01:46:29;101882.25;;;-1.60;73.52
52185;BME280;38160;52.876;18.778;2023-04-04T01:49:18;101887.53;;;-1.60;73.65
52185;BME280;38160;52.876;18.778;2023-04-04T01:51:55;101888.48;;;-1.62;73.47
52185;BME280;38160;52.876;18.778;2023-04-04T01:54:58;101886.08;;;-1.64;73.76
52185;BME280;38160;52.876;18.778;2023-04-04T01:57:35;101880.42;;;-1.63;73.87
52185;BME280;38160;52.876;18.778;2023-04-04T02:00:14;101883.93;;;-1.62;74.14
52185;BME280;38160;52.876;18.778;2023-04-04T02:02:51;101876.39;;;-1.68;73.96
52185;BME280;38160;52.876;18.778;2023-04-04T02:05:55;101883.30;;;-1.64;73.95
52185;BME280;38160;52.876;18.778;2023-04-04T02:08:37;101883.79;;;-1.63;73.74
52185;BME280;38160;52.876;18.778;2023-04-04T02:11:14;101880.65;;;-1.60;74.09
52185;BME280;38160;52.876;18.778;2023-04-04T02:14:18;101883.46;;;-1.55;74.10
52185;BME280;38160;52.876;18.778;2023-04-04T02:16:55;101883.83;;;-1.50;74.11
52185;BME280;38160;52.876;18.778;2023-04-04T02:19:45;101878.95;;;-1.47;74.10
52185;BME280;38160;52.876;18.778;2023-04-04T02:22:26;101879.02;;;-1.44;74.48
52185;BME280;38160;52.876;18.778;2023-04-04T02:25:04;101877.30;;;-1.41;73.96
52185;BME280;38160;52.876;18.778;2023-04-04T02:27:41;101878.77;;;-1.37;74.33
52185;BME280;38160;52.876;18.778;2023-04-04T02:30:17;101873.09;;;-1.36;74.15
52185;BME280;38160;52.876;18.778;2023-04-04T02:33:04;101876.74;;;-1.35;74.23
52185;BME280;38160;52.876;18.778;2023-04-04T02:35:41;101869.70;;;-1.35;74.70
52185;BME280;38160;52.876;18.778;2023-04-04T02:38:33;101867.58;;;-1.35;74.60
52185;BME280;38160;52.876;18.778;2023-04-04T02:41:13;101867.69;;;-1.34;74.20
52185;BME280;38160;52.876;18.778;2023-04-04T02:44:00;101866.42;;;-1.33;74.27
52185;BME280;38160;52.876;18.778;2023-04-04T02:49:42;101867.14;;;-1.33;74.43
52185;BME280;38160;52.876;18.778;2023-04-04T02:55:43;101853.69;;;-1.37;74.52
52185;BME280;38160;52.876;18.778;2023-04-04T03:05:43;101862.15;;;-1.37;74.68
52185;BME280;38160;52.876;18.778;2023-04-04T03:08:24;101858.23;;;-1.36;74.76
52185;BME280;38160;52.876;18.778;2023-04-04T03:14:10;101858.02;;;-1.35;74.70
52185;BME280;38160;52.876;18.778;2023-04-04T03:16:53;101855.83;;;-1.33;74.74
52185;BME280;38160;52.876;18.778;2023-04-04T03:19:30;101857.36;;;-1.31;74.93
52185;BME280;38160;52.876;18.778;2023-04-04T03:22:16;101860.27;;;-1.29;74.76
52185;BME280;38160;52.876;18.778;2023-04-04T03:24:58;101859.54;;;-1.28;74.67
52185;BME280;38160;52.876;18.778;2023-04-04T03:27:34;101856.00;;;-1.28;74.67
52185;BME280;38160;52.876;18.778;2023-04-04T03:30:34;101856.67;;;-1.28;74.70
52185;BME280;38160;52.876;18.778;2023-04-04T03:33:10;101857.47;;;-1.25;74.74
52185;BME280;38160;52.876;18.778;2023-04-04T03:35:46;101848.92;;;-1.23;74.87
52185;BME280;38160;52.876;18.778;2023-04-04T03:38:23;101851.82;;;-1.21;74.80
52185;BME280;38160;52.876;18.778;2023-04-04T03:41:07;101853.63;;;-1.17;74.64
52185;BME280;38160;52.876;18.778;2023-04-04T03:43:48;101846.95;;;-1.13;74.48
52185;BME280;38160;52.876;18.778;2023-04-04T03:46:50;101845.75;;;-1.10;74.45
52185;BME280;38160;52.876;18.778;2023-04-04T03:49:28;101839.89;;;-1.09;74.25
52185;BME280;38160;52.876;18.778;2023-04-04T03:59:29;101840.71;;;-1.02;74.46
52185;BME280;38160;52.876;18.778;2023-04-04T04:02:06;101842.91;;;-1.00;74.44
52185;BME280;38160;52.876;18.778;2023-04-04T04:05:06;101849.52;;;-0.98;74.44
52185;BME280;38160;52.876;18.778;2023-04-04T04:07:45;101850.73;;;-0.92;74.74
52185;BME280;38160;52.876;18.778;2023-04-04T04:10:48;101853.56;;;-0.88;74.43
52185;BME280;38160;52.876;18.778;2023-04-04T04:13:32;101850.90;;;-0.84;74.28
52185;BME280;38160;52.876;18.778;2023-04-04T04:16:26;101846.59;;;-0.81;74.21
52185;BME280;38160;52.876;18.778;2023-04-04T04:19:14;101845.41;;;-0.79;74.16
52185;BME280;38160;52.876;18.778;2023-04-04T04:21:54;101850.42;;;-0.76;73.98
52185;BME280;38160;52.876;18.778;2023-04-04T04:24:31;101851.08;;;-0.75;74.04
52185;BME280;38160;52.876;18.778;2023-04-04T04:27:15;101849.81;;;-0.74;73.87
52185;BME280;38160;52.876;18.778;2023-04-04T04:29:54;101851.09;;;-0.70;73.73
52185;BME280;38160;52.876;18.778;2023-04-04T04:32:31;101853.30;;;-0.68;73.67
52185;BME280;38160;52.876;18.778;2023-04-04T04:35:09;101847.34;;;-0.65;73.65
52185;BME280;38160;52.876;18.778;2023-04-04T04:37:57;101844.74;;;-0.62;73.61
52185;BME280;38160;52.876;18.778;2023-04-04T04:40:41;101841.89;;;-0.62;73.57
52185;BME280;38160;52.876;18.778;2023-04-04T04:43:38;101842.23;;;-0.57;73.63
52185;BME280;38160;52.876;18.778;2023-04-04T04:46:16;101845.94;;;-0.52;73.67
52185;BME280;38160;52.876;18.778;2023-04-04T04:49:09;101847.70;;;-0.48;73.75
52185;BME280;38160;52.876;18.778;2023-04-04T04:51:47;101848.39;;;-0.44;73.67
52185;BME280;38160;52.876;18.778;2023-04-04T04:54:23;101847.80;;;-0.38;73.42
52185;BME280;38160;52.876;18.778;2023-04-04T04:57:02;101841.98;;;-0.34;73.51
52185;BME280;38160;52.876;18.778;2023-04-04T05:03:53;101843.13;;;-0.28;73.26
52185;BME280;38160;52.876;18.778;2023-04-04T05:06:34;101841.13;;;-0.23;73.23
52185;BME280;38160;52.876;18.778;2023-04-04T05:09:17;101840.14;;;-0.19;73.12
52185;BME280;38160;52.876;18.778;2023-04-04T05:19:15;101843.52;;;-0.08;72.81
52185;BME280;38160;52.876;18.778;2023-04-04T05:22:11;101847.92;;;0.01;72.75
52185;BME280;38160;52.876;18.778;2023-04-04T05:24:58;101847.41;;;0.08;72.74
52185;BME280;38160;52.876;18.778;2023-04-04T05:27:35;101850.32;;;0.15;72.59
52185;BME280;38160;52.876;18.778;2023-04-04T05:30:12;101847.09;;;0.20;72.45
52185;BME280;38160;52.876;18.778;2023-04-04T05:33:00;101851.14;;;0.25;72.32
52185;BME280;38160;52.876;18.778;2023-04-04T05:35:38;101849.18;;;0.29;72.21
52185;BME280;38160;52.876;18.778;2023-04-04T05:38:15;101845.51;;;0.35;72.44
52185;BME280;38160;52.876;18.778;2023-04-04T05:41:01;101831.02;;;0.31;71.93
52185;BME280;38160;52.876;18.778;2023-04-04T05:44:13;101836.23;;;0.42;72.00
52185;BME280;38160;52.876;18.778;2023-04-04T05:50:27;101845.01;;;0.58;71.95
52185;BME280;38160;52.876;18.778;2023-04-04T05:57:19;101847.89;;;0.69;71.84
52185;BME280;38160;52.876;18.778;2023-04-04T06:03:57;101852.56;;;0.86;71.65
52185;BME280;38160;52.876;18.778;2023-04-04T06:06:36;101852.34;;;0.95;71.27
52185;BME280;38160;52.876;18.778;2023-04-04T06:09:13;101850.24;;;1.01;71.35
52185;BME280;38160;52.876;18.778;2023-04-04T06:11:50;101840.34;;;1.05;71.61
52185;BME280;38160;52.876;18.778;2023-04-04T06:14:36;101843.80;;;1.14;71.14
52185;BME280;38160;52.876;18.778;2023-04-04T06:17:32;101840.67;;;1.20;70.88
52185;BME280;38160;52.876;18.778;2023-04-04T06:23:48;101836.73;;;1.39;70.60
52185;BME280;38160;52.876;18.778;2023-04-04T06:26:25;101840.74;;;1.48;70.02
52185;BME280;38160;52.876;18.778;2023-04-04T06:29:02;101842.38;;;1.51;69.41
52185;BME280;38160;52.876;18.778;2023-04-04T06:31:56;101839.77;;;1.50;69.71
52185;BME280;38160;52.876;18.778;2023-04-04T06:34:50;101843.89;;;1.56;69.42
52185;BME280;38160;52.876;18.778;2023-04-04T06:37:59;101841.56;;;1.63;68.31
52185;BME280;38160;52.876;18.778;2023-04-04T06:40:37;101837.04;;;1.69;69.08
52185;BME280;38160;52.876;18.778;2023-04-04T06:43:19;101841.44;;;1.76;69.08
52185;BME280;38160;52.876;18.778;2023-04-04T06:45:57;101839.98;;;1.88;69.03
52185;BME280;38160;52.876;18.778;2023-04-04T06:48:43;101837.34;;;1.91;69.12
52185;BME280;38160;52.876;18.778;2023-04-04T06:51:31;101831.39;;;1.93;69.57
52185;BME280;38160;52.876;18.778;2023-04-04T06:54:08;101831.58;;;2.02;69.11
52185;BME280;38160;52.876;18.778;2023-04-04T06:56:46;101831.16;;;2.10;69.10
52185;BME280;38160;52.876;18.778;2023-04-04T06:59:22;101828.48;;;2.17;68.74
52185;BME280;38160;52.876;18.778;2023-04-04T07:02:05;101831.87;;;2.27;68.82
52185;BME280;38160;52.876;18.778;2023-04-04T07:04:43;101828.67;;;2.31;67.94
52185;BME280;38160;52.876;18.778;2023-04-04T07:07:19;101828.28;;;2.21;67.38
52185;BME280;38160;52.876;18.778;2023-04-04T07:10:01;101828.55;;;2.13;66.52
52185;BME280;38160;52.876;18.778;2023-04-04T07:12:38;101823.84;;;2.18;67.76
52185;BME280;38160;52.876;18.778;2023-04-04T07:15:15;101822.09;;;2.21;67.55
52185;BME280;38160;52.876;18.778;2023-04-04T07:17:50;101820.67;;;2.23;66.61
52185;BME280;38160;52.876;18.778;2023-04-04T07:20:26;101820.90;;;2.37;67.81
52185;BME280;38160;52.876;18.778;2023-04-04T07:23:03;101822.12;;;2.50;67.02
52185;BME280;38160;52.876;18.778;2023-04-04T07:25:43;101819.48;;;2.53;66.67
52185;BME280;38160;52.876;18.778;2023-04-04T07:28:22;101822.20;;;2.55;66.91
52185;BME280;38160;52.876;18.778;2023-04-04T07:31:00;101824.02;;;2.71;67.23
52185;BME280;38160;52.876;18.778;2023-04-04T07:33:36;101824.51;;;2.84;67.60
52185;BME280;38160;52.876;18.778;2023-04-04T07:36:13;101825.42;;;2.87;67.21
52185;BME280;38160;52.876;18.778;2023-04-04T07:38:51;101822.06;;;2.86;65.77
52185;BME280;38160;52.876;18.778;2023-04-04T07:41:27;101818.31;;;2.87;65.25
52185;BME280;38160;52.876;18.778;2023-04-04T07:44:07;101809.91;;;2.91;64.94
52185;BME280;38160;52.876;18.778;2023-04-04T07:46:44;101808.70;;;3.03;65.79
52185;BME280;38160;52.876;18.778;2023-04-04T07:49:20;101810.98;;;3.17;65.72
52185;BME280;38160;52.876;18.778;2023-04-04T07:51:58;101807.18;;;3.21;65.29
52185;BME280;38160;52.876;18.778;2023-04-04T07:54:35;101805.79;;;3.23;64.75
52185;BME280;38160;52.876;18.778;2023-04-04T07:57:12;101804.34;;;3.23;64.62
52185;BME280;38160;52.876;18.778;2023-04-04T07:59:55;101806.80;;;3.27;64.09
52185;BME280;38160;52.876;18.778;2023-04-04T08:02:31;101804.71;;;3.26;64.12
52185;BME280;38160;52.876;18.778;2023-04-04T08:05:09;101806.02;;;3.16;63.00
52185;BME280;38160;52.876;18.778;2023-04-04T08:07:45;101804.91;;;3.07;64.38
52185;BME280;38160;52.876;18.778;2023-04-04T08:10:21;101813.80;;;3.07;64.55
52185;BME280;38160;52.876;18.778;2023-04-04T08:12:57;101809.16;;;3.04;65.64
52185;BME280;38160;52.876;18.778;2023-04-04T08:15:33;101806.04;;;3.13;64.81
52185;BME280;38160;52.876;18.778;2023-04-04T08:18:09;101810.20;;;3.17;64.26
52185;BME280;38160;52.876;18.778;2023-04-04T08:20:45;101816.49;;;3.19;63.86
52185;BME280;38160;52.876;18.778;2023-04-04T08:23:21;101810.72;;;3.15;64.20
52185;BME280;38160;52.876;18.778;2023-04-04T08:25:58;101810.90;;;3.05;63.51
52185;BME280;38160;52.876;18.778;2023-04-04T08:28:34;101802.24;;;3.01;62.88
52185;BME280;38160;52.876;18.778;2023-04-04T08:31:10;101802.57;;;3.07;63.64
52185;BME280;38160;52.876;18.778;2023-04-04T08:33:47;101800.46;;;3.14;63.29
52185;BME280;38160;52.876;18.778;2023-04-04T08:36:24;101802.38;;;3.08;62.20
52185;BME280;38160;52.876;18.778;2023-04-04T08:39:00;101801.83;;;3.02;61.87
52185;BME280;38160;52.876;18.778;2023-04-04T08:41:37;101799.90;;;3.01;61.90
52185;BME280;38160;52.876;18.778;2023-04-04T08:44:16;101806.36;;;3.01;61.31
52185;BME280;38160;52.876;18.778;2023-04-04T08:46:57;101807.77;;;2.94;61.10
52185;BME280;38160;52.876;18.778;2023-04-04T08:49:37;101802.71;;;2.83;60.06
52185;BME280;38160;52.876;18.778;2023-04-04T08:52:17;101805.46;;;2.85;60.54
52185;BME280;38160;52.876;18.778;2023-04-04T08:55:01;101808.42;;;2.86;60.98
52185;BME280;38160;52.876;18.778;2023-04-04T08:57:42;101809.42;;;2.87;60.42
52185;BME280;38160;52.876;18.778;2023-04-04T09:00:19;101808.14;;;2.82;60.47
52185;BME280;38160;52.876;18.778;2023-04-04T09:03:01;101806.11;;;2.83;60.06
52185;BME280;38160;52.876;18.778;2023-04-04T09:05:39;101801.22;;;2.91;60.77
52185;BME280;38160;52.876;18.778;2023-04-04T09:08:17;101802.45;;;3.07;62.61
52185;BME280;38160;52.876;18.778;2023-04-04T09:11:02;101795.86;;;3.20;61.80
52185;BME280;38160;52.876;18.778;2023-04-04T09:13:39;101799.00;;;3.30;60.74
52185;BME280;38160;52.876;18.778;2023-04-04T09:16:16;101798.60;;;3.24;59.80
52185;BME280;38160;52.876;18.778;2023-04-04T09:18:52;101800.48;;;3.16;60.63
52185;BME280;38160;52.876;18.778;2023-04-04T09:21:31;101798.02;;;3.13;60.40
52185;BME280;38160;52.876;18.778;2023-04-04T09:24:10;101795.67;;;3.10;59.92
52185;BME280;38160;52.876;18.778;2023-04-04T09:26:50;101801.20;;;3.01;60.01
52185;BME280;38160;52.876;18.778;2023-04-04T09:29:27;101798.07;;;2.96;60.98
52185;BME280;38160;52.876;18.778;2023-04-04T09:32:03;101799.96;;;3.01;60.85
52185;BME280;38160;52.876;18.778;2023-04-04T09:34:39;101799.98;;;3.00;60.55
52185;BME280;38160;52.876;18.778;2023-04-04T09:37:17;101793.65;;;3.08;61.25
52185;BME280;38160;52.876;18.778;2023-04-04T09:39:53;101794.15;;;3.18;60.20
52185;BME280;38160;52.876;18.778;2023-04-04T09:42:31;101794.56;;;3.20;60.16
52185;BME280;38160;52.876;18.778;2023-04-04T09:45:43;101791.99;;;3.25;60.05
52185;BME280;38160;52.876;18.778;2023-04-04T09:48:29;101797.11;;;3.32;60.43
52185;BME280;38160;52.876;18.778;2023-04-04T09:51:10;101795.65;;;3.32;60.32
52185;BME280;38160;52.876;18.778;2023-04-04T09:53:49;101794.75;;;3.48;60.65
52185;BME280;38160;52.876;18.778;2023-04-04T09:57:02;101791.55;;;3.57;59.50
52185;BME280;38160;52.876;18.778;2023-04-04T09:59:40;101791.55;;;3.63;58.79
52185;BME280;38160;52.876;18.778;2023-04-04T10:02:26;101795.45;;;3.69;59.01
52185;BME280;38160;52.876;18.778;2023-04-04T10:05:05;101794.98;;;3.62;59.48
52185;BME280;38160;52.876;18.778;2023-04-04T10:07:42;101793.79;;;3.64;59.82
52185;BME280;38160;52.876;18.778;2023-04-04T10:10:27;101788.98;;;3.70;58.57
52185;BME280;38160;52.876;18.778;2023-04-04T10:13:12;101790.40;;;3.77;59.74
52185;BME280;38160;52.876;18.778;2023-04-04T10:15:48;101788.13;;;3.76;58.81
52185;BME280;38160;52.876;18.778;2023-04-04T10:21:17;101786.72;;;3.76;59.51
52185;BME280;38160;52.876;18.778;2023-04-04T10:27:08;101784.09;;;3.65;58.80
52185;BME280;38160;52.876;18.778;2023-04-04T10:29:44;101783.23;;;3.68;59.46
52185;BME280;38160;52.876;18.778;2023-04-04T10:32:26;101775.35;;;3.69;59.35
52185;BME280;38160;52.876;18.778;2023-04-04T10:35:18;101779.45;;;3.72;58.48
52185;BME280;38160;52.876;18.778;2023-04-04T10:37:58;101778.96;;;3.71;57.71
52185;BME280;38160;52.876;18.778;2023-04-04T10:40:36;101779.91;;;3.70;57.70
52185;BME280;38160;52.876;18.778;2023-04-04T10:43:23;101772.66;;;3.72;57.85
52185;BME280;38160;52.876;18.778;2023-04-04T10:46:22;101771.55;;;3.79;57.43
52185;BME280;38160;52.876;18.778;2023-04-04T11:18:49;101749.73;;;3.83;58.33
52185;BME280;38160;52.876;18.778;2023-04-04T11:21:32;101753.73;;;4.11;58.84
52185;BME280;38160;52.876;18.778;2023-04-04T11:24:14;101751.65;;;4.30;57.10
52185;BME280;38160;52.876;18.778;2023-04-04T11:26:59;101747.56;;;4.52;58.07
52185;BME280;38160;52.876;18.778;2023-04-04T11:29:51;101745.56;;;4.78;57.81
52185;BME280;38160;52.876;18.778;2023-04-04T11:32:44;101749.65;;;4.90;56.56
52185;BME280;38160;52.876;18.778;2023-04-04T11:35:23;101743.07;;;4.84;56.26
52185;BME280;38160;52.876;18.778;2023-04-04T11:38:03;101739.82;;;4.76;56.46
52185;BME280;38160;52.876;18.778;2023-04-04T11:40:41;101729.07;;;4.85;57.56
52185;BME280;38160;52.876;18.778;2023-04-04T11:43:19;101724.24;;;4.93;57.26
52185;BME280;38160;52.876;18.778;2023-04-04T11:46:05;101722.98;;;4.99;57.72
52185;BME280;38160;52.876;18.778;2023-04-04T11:48:44;101724.54;;;5.05;58.17
52185;BME280;38160;52.876;18.778;2023-04-04T11:51:20;101721.90;;;4.94;57.01
52185;BME280;38160;52.876;18.778;2023-04-04T11:53:57;101717.73;;;4.89;56.81
52185;BME280;38160;52.876;18.778;2023-04-04T11:56:36;101719.33;;;4.92;57.33
52185;BME280;38160;52.876;18.778;2023-04-04T11:59:16;101715.52;;;4.93;56.65
52185;BME280;38160;52.876;18.778;2023-04-04T12:01:52;101714.90;;;4.92;56.42
52185;BME280;38160;52.876;18.778;2023-04-04T12:04:29;101709.68;;;5.11;57.16
52185;BME280;38160;52.876;18.778;2023-04-04T12:07:08;101699.59;;;5.34;56.92
52185;BME280;38160;52.876;18.778;2023-04-04T12:09:44;101695.68;;;5.60;57.28
52185;BME280;38160;52.876;18.778;2023-04-04T12:12:22;101698.08;;;5.84;55.33
52185;BME280;38160;52.876;18.778;2023-04-04T12:14:59;101691.11;;;5.79;55.28
52185;BME280;38160;52.876;18.778;2023-04-04T12:17:39;101690.27;;;5.55;55.23
52185;BME280;38160;52.876;18.778;2023-04-04T12:20:18;101689.83;;;5.49;55.51
52185;BME280;38160;52.876;18.778;2023-04-04T12:22:56;101694.51;;;5.38;55.07
52185;BME280;38160;52.876;18.778;2023-04-04T12:25:33;101693.41;;;5.22;54.98
52185;BME280;38160;52.876;18.778;2023-04-04T12:28:09;101690.50;;;5.18;55.89
52185;BME280;38160;52.876;18.778;2023-04-04T12:30:49;101686.83;;;5.11;56.29
52185;BME280;38160;52.876;18.778;2023-04-04T12:36:16;101676.70;;;5.22;55.88
52185;BME280;38160;52.876;18.778;2023-04-04T12:39:03;101675.66;;;5.34;55.71
52185;BME280;38160;52.876;18.778;2023-04-04T12:41:52;101669.72;;;5.55;55.17
52185;BME280;38160;52.876;18.778;2023-04-04T12:44:30;101668.65;;;5.79;54.78
52185;BME280;38160;52.876;18.778;2023-04-04T12:47:31;101669.80;;;5.64;53.53
52185;BME280;38160;52.876;18.778;2023-04-04T12:50:26;101661.46;;;5.38;53.21
52185;BME280;38160;52.876;18.778;2023-04-04T12:53:01;101660.74;;;5.25;54.75
52185;BME280;38160;52.876;18.778;2023-04-04T12:55:46;101662.08;;;5.13;54.12
52185;BME280;38160;52.876;18.778;2023-04-04T12:58:34;101651.23;;;5.16;54.49
